createdAt,value
2022-11-21T00:00:37.579Z,99.99
2022-11-21T00:01:37.645Z,99.99
2022-11-21T00:02:37.495Z,99.99
2022-11-21T00:03:37.462Z,99.99
2022-11-21T00:04:37.416Z,99.99
2022-11-21T00:05:37.420Z,99.99
2022-11-21T00:06:37.371Z,99.99
2022-11-21T00:07:37.391Z,99.99
2022-11-21T00:08:37.265Z,99.99
2022-11-21T00:09:37.228Z,99.99
2022-11-21T00:10:37.183Z,99.99
2022-11-21T00:11:37.152Z,99.99
2022-11-21T00:12:37.175Z,99.99
2022-11-21T00:13:37.142Z,99.99
2022-11-21T00:14:37.032Z,99.99
2022-11-21T00:15:37.005Z,99.99
2022-11-21T00:16:36.976Z,99.99
2022-11-21T00:17:36.910Z,99.99
2022-11-21T00:18:36.881Z,99.99
2022-11-21T00:19:36.892Z,99.99
2022-11-21T00:20:36.797Z,99.99
2022-11-21T00:21:36.773Z,99.99
2022-11-21T00:22:36.732Z,99.99
2022-11-21T00:23:36.701Z,99.99
2022-11-21T00:24:36.638Z,99.99
2022-11-21T00:25:36.697Z,99.99
2022-11-21T00:26:36.567Z,99.99
2022-11-21T00:27:36.529Z,99.99
2022-11-21T00:28:36.498Z,99.99
2022-11-21T00:29:36.456Z,99.99
2022-11-21T00:30:36.415Z,99.99
2022-11-21T00:31:36.429Z,99.99
2022-11-21T00:32:36.341Z,99.99
2022-11-21T00:33:36.302Z,99.99
2022-11-21T00:34:36.278Z,99.99
2022-11-21T00:35:36.241Z,99.99
2022-11-21T00:36:36.194Z,99.99
2022-11-21T00:37:36.198Z,99.99
2022-11-21T00:38:36.106Z,99.99
2022-11-21T00:39:36.075Z,99.99
2022-11-21T00:40:36.026Z,99.99
2022-11-21T00:41:35.991Z,99.99
2022-11-21T00:42:35.946Z,99.99
2022-11-21T00:43:35.977Z,99.99
2022-11-21T00:44:35.867Z,99.99
2022-11-21T00:45:35.851Z,99.99
2022-11-21T00:46:35.803Z,99.99
2022-11-21T00:47:35.774Z,99.99
2022-11-21T00:48:35.790Z,99.99
2022-11-21T00:49:35.681Z,99.99
2022-11-21T00:50:35.639Z,99.99
2022-11-21T00:51:35.599Z,99.99
2022-11-21T00:52:35.575Z,99.99
2022-11-21T00:53:35.526Z,99.99
2022-11-21T00:54:35.583Z,99.99
2022-11-21T00:55:35.454Z,99.99
2022-11-21T00:56:35.525Z,99.99
2022-11-21T00:57:35.376Z,99.99
2022-11-21T00:58:35.332Z,99.99
2022-11-21T00:59:35.302Z,99.99
2022-11-21T01:00:35.350Z,99.99
2022-11-21T01:01:35.233Z,99.99
2022-11-21T01:02:35.179Z,99.99
2022-11-21T01:03:35.204Z,99.99
2022-11-21T01:04:35.112Z,99.99
2022-11-21T01:05:35.073Z,99.99
2022-11-21T01:06:35.031Z,99.99
2022-11-21T01:07:35.100Z,99.99
2022-11-21T01:08:35.016Z,99.99
2022-11-21T01:09:34.913Z,99.99
2022-11-21T01:10:34.882Z,99.99
2022-11-21T01:11:34.836Z,99.99
2022-11-21T01:12:34.831Z,99.99
2022-11-21T01:13:34.767Z,99.99
2022-11-21T01:14:34.833Z,99.99
2022-11-21T01:15:34.683Z,99.99
2022-11-21T01:16:34.645Z,99.99
2022-11-21T01:17:34.611Z,99.99
2022-11-21T01:18:34.586Z,99.99
2022-11-21T01:19:34.539Z,99.99
2022-11-21T01:20:34.539Z,99.99
2022-11-21T01:21:34.461Z,99.99
2022-11-21T01:22:34.429Z,99.99
2022-11-21T01:23:34.388Z,99.99
2022-11-21T01:24:34.331Z,99.99
2022-11-21T01:25:34.294Z,99.99
2022-11-21T01:26:34.317Z,99.99
2022-11-21T01:27:34.221Z,99.99
2022-11-21T01:28:34.186Z,99.99
2022-11-21T01:29:34.137Z,99.99
2022-11-21T01:30:34.113Z,99.99
2022-11-21T01:31:34.071Z,99.99
2022-11-21T01:32:34.109Z,99.92
2022-11-21T01:33:33.993Z,99.82
2022-11-21T01:34:33.962Z,99.99
2022-11-21T01:35:33.919Z,99.82
2022-11-21T01:36:33.882Z,99.99
2022-11-21T01:37:33.853Z,99.99
2022-11-21T01:38:33.876Z,99.71
2022-11-21T01:39:33.791Z,99.99
2022-11-21T01:40:33.757Z,99.82
2022-11-21T01:41:33.756Z,99.92
2022-11-21T01:42:33.699Z,99.99
2022-11-21T01:43:33.612Z,99.92
2022-11-21T01:44:33.636Z,99.92
2022-11-21T01:45:33.564Z,99.99
2022-11-21T01:46:33.538Z,99.99
2022-11-21T01:47:33.478Z,99.99
2022-11-21T01:48:33.416Z,99.99
2022-11-21T01:49:33.401Z,99.99
2022-11-21T01:50:33.412Z,99.99
2022-11-21T01:51:33.360Z,99.99
2022-11-21T01:52:33.265Z,99.99
2022-11-21T01:53:33.345Z,99.99
2022-11-21T01:54:33.269Z,99.99
2022-11-21T01:55:33.299Z,99.99
2022-11-21T01:56:33.257Z,99.99
2022-11-21T01:57:33.070Z,99.99
2022-11-21T01:58:33.036Z,99.99
2022-11-21T01:59:32.999Z,99.99
2022-11-21T02:00:33.070Z,99.99
2022-11-21T02:01:32.988Z,99.99
2022-11-21T02:02:32.965Z,99.99
2022-11-21T02:03:32.847Z,99.99
2022-11-21T02:04:32.858Z,99.99
2022-11-21T02:05:32.873Z,99.99
2022-11-21T02:06:32.799Z,99.92
2022-11-21T02:07:32.770Z,99.99
2022-11-21T02:08:32.776Z,99.99
2022-11-21T02:09:32.942Z,99.99
2022-11-21T02:10:32.633Z,99.99
2022-11-21T02:11:32.558Z,99.99
2022-11-21T02:12:32.623Z,99.99
2022-11-21T02:13:32.540Z,99.99
2022-11-21T02:14:32.440Z,99.99
2022-11-21T02:15:32.629Z,99.99
2022-11-21T02:16:33.139Z,99.99
2022-11-21T02:17:32.329Z,99.99
2022-11-21T02:18:32.308Z,99.99
2022-11-21T02:19:32.262Z,99.92
2022-11-21T02:20:32.260Z,99.92
2022-11-21T02:21:32.230Z,99.71
2022-11-21T02:22:32.126Z,99.99
2022-11-21T02:23:32.082Z,99.92
2022-11-21T02:24:32.115Z,99.99
2022-11-21T02:25:32.057Z,99.92
2022-11-21T02:26:32.073Z,99.99
2022-11-21T02:27:31.923Z,99.99
2022-11-21T02:28:31.923Z,99.71
2022-11-21T02:29:31.857Z,99.71
2022-11-21T02:30:31.845Z,99.71
2022-11-21T02:31:31.850Z,99.92
2022-11-21T02:32:31.758Z,99.92
2022-11-21T02:33:31.700Z,99.99
2022-11-21T02:34:31.689Z,99.92
2022-11-21T02:35:31.632Z,99.82
2022-11-21T02:36:31.603Z,99.71
2022-11-21T02:37:31.619Z,99.92
2022-11-21T02:38:31.593Z,99.92
2022-11-21T02:39:31.495Z,99.99
2022-11-21T02:40:31.434Z,99.92
2022-11-21T02:41:31.400Z,99.99
2022-11-21T02:42:31.359Z,99.92
2022-11-21T02:43:31.397Z,99.82
2022-11-21T02:44:31.283Z,99.92
2022-11-21T02:45:31.244Z,99.99
2022-11-21T02:46:31.232Z,99.92
2022-11-21T02:47:31.184Z,99.99
2022-11-21T02:48:31.142Z,99.92
2022-11-21T02:49:31.152Z,99.40
2022-11-21T02:50:31.099Z,99.34
2022-11-21T02:51:31.036Z,99.34
2022-11-21T02:52:31.004Z,99.55
2022-11-21T02:53:30.935Z,99.34
2022-11-21T02:54:30.940Z,99.24
2022-11-21T02:55:30.935Z,99.65
2022-11-21T02:56:30.841Z,98.82
2022-11-21T02:57:30.776Z,99.24
2022-11-21T02:58:30.804Z,99.13
2022-11-21T02:59:30.718Z,98.71
2022-11-21T03:00:30.713Z,99.44
2022-11-21T03:01:30.715Z,99.44
2022-11-21T03:02:30.596Z,99.61
2022-11-21T03:03:30.561Z,99.76
2022-11-21T03:04:30.607Z,99.82
2022-11-21T03:05:30.478Z,99.92
2022-11-21T03:06:30.433Z,99.92
2022-11-21T03:07:30.538Z,99.34
2022-11-21T03:08:30.366Z,99.19
2022-11-21T03:09:30.347Z,99.29
2022-11-21T03:10:30.287Z,99.40
2022-11-21T03:11:30.276Z,99.40
2022-11-21T03:12:30.224Z,99.40
2022-11-21T03:13:30.321Z,99.71
2022-11-21T03:14:30.310Z,99.19
2022-11-21T03:15:30.098Z,99.51
2022-11-21T03:16:30.048Z,99.71
2022-11-21T03:17:30.041Z,99.82
2022-11-21T03:18:30.027Z,99.92
2022-11-21T03:19:30.026Z,99.99
2022-11-21T03:20:29.943Z,99.92
2022-11-21T03:21:29.895Z,99.82
2022-11-21T03:22:29.836Z,99.99
2022-11-21T03:23:29.789Z,99.99
2022-11-21T03:24:30.142Z,99.99
2022-11-21T03:25:29.718Z,99.92
2022-11-21T03:26:29.686Z,99.92
2022-11-21T03:27:29.660Z,99.82
2022-11-21T03:28:29.592Z,99.82
2022-11-21T03:29:29.563Z,99.82
2022-11-21T03:30:29.582Z,99.99
2022-11-21T03:31:29.556Z,99.82
2022-11-21T03:32:29.448Z,99.19
2022-11-21T03:33:29.417Z,99.40
2022-11-21T03:34:29.660Z,99.08
2022-11-21T03:35:29.338Z,99.29
2022-11-21T03:36:29.308Z,99.71
2022-11-21T03:37:29.329Z,98.82
2022-11-21T03:38:29.213Z,98.65
2022-11-21T03:39:29.175Z,99.13
2022-11-21T03:40:29.139Z,99.07
2022-11-21T03:41:29.110Z,99.70
2022-11-21T03:42:29.069Z,99.70
2022-11-21T03:43:29.107Z,99.38
2022-11-21T03:44:29.821Z,99.38
2022-11-21T03:45:28.953Z,99.99
2022-11-21T03:46:28.909Z,99.99
2022-11-21T03:47:28.880Z,99.99
2022-11-21T03:48:28.854Z,99.99
2022-11-21T03:49:28.849Z,99.99
2022-11-21T03:50:28.763Z,99.99
2022-11-21T03:51:28.727Z,99.99
2022-11-21T03:52:28.683Z,99.99
2022-11-21T03:53:28.638Z,99.99
2022-11-21T03:54:28.864Z,99.99
2022-11-21T03:55:28.639Z,99.99
2022-11-21T03:56:28.572Z,99.99
2022-11-21T03:57:28.538Z,99.99
2022-11-21T03:58:28.448Z,99.99
2022-11-21T03:59:28.417Z,99.99
2022-11-21T04:00:28.375Z,99.99
2022-11-21T04:01:32.434Z,99.99
2022-11-21T04:02:28.288Z,99.99
2022-11-21T04:03:28.251Z,99.99
2022-11-21T04:04:28.440Z,99.99
2022-11-21T04:05:28.192Z,99.99
2022-11-21T04:06:28.145Z,99.99
2022-11-21T04:07:28.204Z,99.99
2022-11-21T04:08:28.068Z,99.99
2022-11-21T04:09:28.022Z,99.99
2022-11-21T04:10:27.997Z,99.99
2022-11-21T04:11:27.989Z,99.99
2022-11-21T04:12:27.920Z,99.99
2022-11-21T04:13:27.955Z,99.99
2022-11-21T04:14:27.953Z,99.99
2022-11-21T04:15:27.815Z,99.99
2022-11-21T04:16:27.769Z,99.96
2022-11-21T04:17:27.732Z,99.99
2022-11-21T04:18:27.690Z,99.86
2022-11-21T04:19:27.708Z,99.99
2022-11-21T04:20:27.607Z,99.99
2022-11-21T04:21:27.560Z,99.99
2022-11-21T04:22:27.527Z,99.99
2022-11-21T04:23:27.491Z,99.80
2022-11-21T04:24:27.736Z,99.99
2022-11-21T04:25:27.485Z,99.99
2022-11-21T04:26:27.382Z,99.76
2022-11-21T04:27:27.345Z,99.99
2022-11-21T04:28:27.291Z,99.91
2022-11-21T04:29:27.274Z,99.99
2022-11-21T04:30:27.215Z,99.99
2022-11-21T04:31:27.253Z,99.99
2022-11-21T04:32:27.148Z,99.99
2022-11-21T04:33:27.102Z,99.99
2022-11-21T04:34:27.559Z,99.99
2022-11-21T04:35:27.030Z,99.99
2022-11-21T04:36:27.012Z,99.99
2022-11-21T04:37:27.012Z,99.99
2022-11-21T04:38:26.954Z,99.99
2022-11-21T04:39:26.872Z,99.99
2022-11-21T04:40:26.831Z,99.99
2022-11-21T04:41:26.787Z,99.99
2022-11-21T04:42:26.759Z,99.99
2022-11-21T04:43:26.812Z,99.99
2022-11-21T04:44:26.923Z,99.99
2022-11-21T04:45:26.641Z,99.99
2022-11-21T04:46:26.597Z,99.99
2022-11-21T04:47:26.569Z,99.99
2022-11-21T04:48:26.525Z,99.99
2022-11-21T04:49:26.541Z,99.99
2022-11-21T04:50:26.448Z,99.99
2022-11-21T04:51:26.402Z,99.99
2022-11-21T04:52:26.360Z,99.99
2022-11-21T04:53:26.340Z,99.99
2022-11-21T04:54:26.644Z,99.99
2022-11-21T04:55:26.310Z,99.99
2022-11-21T04:56:26.203Z,99.99
2022-11-21T04:57:26.174Z,99.99
2022-11-21T04:58:26.150Z,99.99
2022-11-21T04:59:26.107Z,99.99
2022-11-21T05:00:26.053Z,99.99
2022-11-21T05:01:26.161Z,99.99
2022-11-21T05:02:26.007Z,99.99
2022-11-21T05:03:25.954Z,99.99
2022-11-21T05:04:26.142Z,99.99
2022-11-21T05:05:25.859Z,99.99
2022-11-21T05:06:25.816Z,99.99
2022-11-21T05:07:25.878Z,99.99
2022-11-21T05:08:25.740Z,99.99
2022-11-21T05:09:25.767Z,99.99
2022-11-21T05:10:25.675Z,99.99
2022-11-21T05:11:25.621Z,99.99
2022-11-21T05:12:25.598Z,99.99
2022-11-21T05:13:25.629Z,99.99
2022-11-21T05:14:25.727Z,99.99
2022-11-21T05:15:25.483Z,99.99
2022-11-21T05:16:25.490Z,99.99
2022-11-21T05:17:25.395Z,99.99
2022-11-21T05:18:25.373Z,99.99
2022-11-21T05:19:25.319Z,99.99
2022-11-21T05:20:25.280Z,99.99
2022-11-21T05:21:25.292Z,99.99
2022-11-21T05:22:25.282Z,99.99
2022-11-21T05:23:25.161Z,99.99
2022-11-21T05:24:25.231Z,99.99
2022-11-21T05:25:25.074Z,99.99
2022-11-21T05:26:25.041Z,99.99
2022-11-21T05:27:25.092Z,99.99
2022-11-21T05:28:24.962Z,99.99
2022-11-21T05:29:28.051Z,99.99
2022-11-21T05:30:24.898Z,99.99
2022-11-21T05:31:24.839Z,99.99
2022-11-21T05:32:24.809Z,99.99
2022-11-21T05:33:24.835Z,99.99
2022-11-21T05:34:24.740Z,99.99
2022-11-21T05:35:24.693Z,99.99
2022-11-21T05:36:24.681Z,99.99
2022-11-21T05:37:24.659Z,99.99
2022-11-21T05:38:24.617Z,99.99
2022-11-21T05:39:24.529Z,99.99
2022-11-21T05:40:24.495Z,99.99
2022-11-21T05:41:25.174Z,99.99
2022-11-21T05:42:24.412Z,99.99
2022-11-21T05:43:24.379Z,99.99
2022-11-21T05:44:24.403Z,99.99
2022-11-21T05:45:24.288Z,99.99
2022-11-21T05:46:24.268Z,99.99
2022-11-21T05:47:24.218Z,99.99
2022-11-21T05:48:24.172Z,99.99
2022-11-21T05:49:24.139Z,99.99
2022-11-21T05:50:24.165Z,99.99
2022-11-21T05:51:24.094Z,99.99
2022-11-21T05:52:24.024Z,99.99
2022-11-21T05:53:24.035Z,99.99
2022-11-21T05:54:23.970Z,99.99
2022-11-21T05:55:23.933Z,99.99
2022-11-21T05:56:24.778Z,99.99
2022-11-21T05:57:23.820Z,99.99
2022-11-21T05:58:23.792Z,99.99
2022-11-21T05:59:23.754Z,99.99
2022-11-21T06:00:23.717Z,99.99
2022-11-21T06:01:23.674Z,99.99
2022-11-21T06:02:23.670Z,99.99
2022-11-21T06:03:23.631Z,99.99
2022-11-21T06:04:23.563Z,99.99
2022-11-21T06:05:23.512Z,99.99
2022-11-21T06:06:25.018Z,99.99
2022-11-21T06:07:23.471Z,99.99
2022-11-21T06:08:23.393Z,99.99
2022-11-21T06:09:23.362Z,99.99
2022-11-21T06:10:23.321Z,99.99
2022-11-21T06:11:23.347Z,99.99
2022-11-21T06:12:25.665Z,99.99
2022-11-21T06:13:23.219Z,99.99
2022-11-21T06:14:23.165Z,99.99
2022-11-21T06:15:23.145Z,99.99
2022-11-21T06:16:23.084Z,99.99
2022-11-21T06:17:23.107Z,99.99
2022-11-21T06:18:23.002Z,99.99
2022-11-21T06:19:22.968Z,99.99
2022-11-21T06:20:22.932Z,99.99
2022-11-21T06:21:22.890Z,99.99
2022-11-21T06:22:22.853Z,99.99
2022-11-21T06:23:22.882Z,99.99
2022-11-21T06:24:22.770Z,99.99
2022-11-21T06:25:22.734Z,99.99
2022-11-21T06:26:23.282Z,99.99
2022-11-21T06:27:22.740Z,99.99
2022-11-21T06:28:22.621Z,99.99
2022-11-21T06:29:22.636Z,99.99
2022-11-21T06:30:22.594Z,99.99
2022-11-21T06:31:22.512Z,99.99
2022-11-21T06:32:22.528Z,99.99
2022-11-21T06:33:22.420Z,99.99
2022-11-21T06:34:22.494Z,99.99
2022-11-21T06:35:22.344Z,99.99
2022-11-21T06:36:22.313Z,99.99
2022-11-21T06:37:22.267Z,99.99
2022-11-21T06:38:22.285Z,99.99
2022-11-21T06:39:22.252Z,99.99
2022-11-21T06:40:22.153Z,99.99
2022-11-21T06:41:22.113Z,99.99
2022-11-21T06:42:22.075Z,99.99
2022-11-21T06:43:22.033Z,99.99
2022-11-21T06:44:22.045Z,99.99
2022-11-21T06:45:22.785Z,99.99
2022-11-21T06:46:21.926Z,99.99
2022-11-21T06:47:21.881Z,99.99
2022-11-21T06:48:21.865Z,99.99
2022-11-21T06:49:21.905Z,99.99
2022-11-21T06:50:21.761Z,99.99
2022-11-21T06:51:21.725Z,99.99
2022-11-21T06:52:21.696Z,99.99
2022-11-21T06:53:21.642Z,99.99
2022-11-21T06:54:21.603Z,99.99
2022-11-21T06:55:21.629Z,99.99
2022-11-21T06:56:21.526Z,99.99
2022-11-21T06:57:21.495Z,99.99
2022-11-21T06:58:21.449Z,99.99
2022-11-21T06:59:21.413Z,99.99
2022-11-21T07:00:21.371Z,99.99
2022-11-21T07:01:21.495Z,99.99
2022-11-21T07:02:21.298Z,99.99
2022-11-21T07:03:21.252Z,99.99
2022-11-21T07:04:21.228Z,99.99
2022-11-21T07:05:21.189Z,99.99
2022-11-21T07:06:21.237Z,99.99
2022-11-21T07:07:21.135Z,99.99
2022-11-21T07:08:21.068Z,99.99
2022-11-21T07:09:36.392Z,99.99
2022-11-21T07:10:20.983Z,99.99
2022-11-21T07:11:25.351Z,99.99
2022-11-21T07:12:20.904Z,99.99
2022-11-21T07:13:20.879Z,99.99
2022-11-21T07:14:20.832Z,99.99
2022-11-21T07:15:20.794Z,99.99
2022-11-21T07:16:20.757Z,99.99
2022-11-21T07:17:20.768Z,99.99
2022-11-21T07:18:20.714Z,99.99
2022-11-21T07:19:20.639Z,99.99
2022-11-21T07:20:20.601Z,99.99
2022-11-21T07:21:20.561Z,99.99
2022-11-21T07:22:20.585Z,99.99
2022-11-21T07:23:20.483Z,99.99
2022-11-21T07:24:20.436Z,99.99
2022-11-21T07:25:20.411Z,99.99
2022-11-21T07:26:20.373Z,99.99
2022-11-21T07:27:20.330Z,99.99
2022-11-21T07:28:20.356Z,99.99
2022-11-21T07:29:20.247Z,99.99
2022-11-21T07:30:20.210Z,99.99
2022-11-21T07:31:20.166Z,99.99
2022-11-21T07:32:20.132Z,99.99
2022-11-21T07:33:20.090Z,99.99
2022-11-21T07:34:20.127Z,99.99
2022-11-21T07:35:20.022Z,99.99
2022-11-21T07:36:19.970Z,99.99
2022-11-21T07:37:19.935Z,99.99
2022-11-21T07:38:19.912Z,99.99
2022-11-21T07:39:19.922Z,99.99
2022-11-21T07:40:19.818Z,99.99
2022-11-21T07:41:19.778Z,99.99
2022-11-21T07:42:19.748Z,99.99
2022-11-21T07:43:19.701Z,99.99
2022-11-21T07:44:19.668Z,99.99
2022-11-21T07:45:20.286Z,99.99
2022-11-21T07:46:19.584Z,99.99
2022-11-21T07:47:19.538Z,99.99
2022-11-21T07:48:19.505Z,99.99
2022-11-21T07:49:19.477Z,99.99
2022-11-21T07:50:19.484Z,99.99
2022-11-21T07:51:19.375Z,99.99
2022-11-21T07:52:19.335Z,99.99
2022-11-21T07:53:19.305Z,99.99
2022-11-21T07:54:19.269Z,99.99
2022-11-21T07:55:19.232Z,99.99
2022-11-21T07:56:19.243Z,99.99
2022-11-21T07:57:19.145Z,99.99
2022-11-21T07:58:19.108Z,99.99
2022-11-21T07:59:19.679Z,99.99
2022-11-21T08:00:19.031Z,99.99
2022-11-21T08:01:20.482Z,99.99
2022-11-21T08:02:19.014Z,99.99
2022-11-21T08:03:18.905Z,99.99
2022-11-21T08:04:18.884Z,99.99
2022-11-21T08:05:18.827Z,99.99
2022-11-21T08:06:18.910Z,99.99
2022-11-21T08:07:18.826Z,99.99
2022-11-21T08:08:18.729Z,99.99
2022-11-21T08:09:18.687Z,99.99
2022-11-21T08:10:18.646Z,99.99
2022-11-21T08:11:18.599Z,99.99
2022-11-21T08:12:18.620Z,99.99
2022-11-21T08:13:18.517Z,99.99
2022-11-21T08:14:18.494Z,99.99
2022-11-21T08:15:18.464Z,99.99
2022-11-21T08:16:18.408Z,99.99
2022-11-21T08:17:18.440Z,99.99
2022-11-21T08:18:18.323Z,99.99
2022-11-21T08:19:18.467Z,99.99
2022-11-21T08:20:18.263Z,99.99
2022-11-21T08:21:19.912Z,99.99
2022-11-21T08:22:18.177Z,99.99
2022-11-21T08:23:18.199Z,99.99
2022-11-21T08:24:18.095Z,99.99
2022-11-21T08:25:18.056Z,99.99
2022-11-21T08:26:18.027Z,99.99
2022-11-21T08:27:17.978Z,99.99
2022-11-21T08:28:17.942Z,99.99
2022-11-21T08:29:17.961Z,99.99
2022-11-21T08:30:17.938Z,99.99
2022-11-21T08:31:17.824Z,99.99
2022-11-21T08:32:17.848Z,99.99
2022-11-21T08:33:17.743Z,99.99
2022-11-21T08:34:17.714Z,99.99
2022-11-21T08:35:17.738Z,99.99
2022-11-21T08:36:17.631Z,99.99
2022-11-21T08:37:17.680Z,99.99
2022-11-21T08:38:17.549Z,99.99
2022-11-21T08:39:17.512Z,99.99
2022-11-21T08:40:17.472Z,99.99
2022-11-21T08:41:17.997Z,99.99
2022-11-21T08:42:17.454Z,99.99
2022-11-21T08:43:17.375Z,99.99
2022-11-21T08:44:17.318Z,99.99
2022-11-21T08:45:17.274Z,99.99
2022-11-21T08:46:17.302Z,99.99
2022-11-21T08:47:17.268Z,99.99
2022-11-21T08:48:17.177Z,99.99
2022-11-21T08:49:17.116Z,99.99
2022-11-21T08:50:17.081Z,99.99
2022-11-21T08:51:17.040Z,99.99
2022-11-21T08:52:17.003Z,99.99
2022-11-21T08:53:17.031Z,99.99
2022-11-21T08:54:16.934Z,99.99
2022-11-21T08:55:16.891Z,99.99
2022-11-21T08:56:16.844Z,99.99
2022-11-21T08:57:16.813Z,99.99
2022-11-21T08:58:16.773Z,99.99
2022-11-21T08:59:19.070Z,99.99
2022-11-21T09:00:16.686Z,99.99
2022-11-21T09:01:16.741Z,99.99
2022-11-21T09:02:16.627Z,99.99
2022-11-21T09:03:21.459Z,99.99
2022-11-21T09:04:16.540Z,99.99
2022-11-21T09:05:16.577Z,99.99
2022-11-21T09:06:16.455Z,99.99
2022-11-21T09:07:16.456Z,99.99
2022-11-21T09:08:16.386Z,99.99
2022-11-21T09:09:20.696Z,99.99
2022-11-21T09:10:16.303Z,99.99
2022-11-21T09:11:16.319Z,99.99
2022-11-21T09:12:16.278Z,99.99
2022-11-21T09:13:16.189Z,99.99
2022-11-21T09:14:16.142Z,99.99
2022-11-21T09:15:16.105Z,99.99
2022-11-21T09:16:20.256Z,99.99
2022-11-21T09:17:16.104Z,99.99
2022-11-21T09:18:15.992Z,99.99
2022-11-21T09:19:15.957Z,99.99
2022-11-21T09:20:16.030Z,99.99
2022-11-21T09:21:15.880Z,99.99
2022-11-21T09:22:15.840Z,99.99
2022-11-21T09:23:15.853Z,99.99
2022-11-21T09:24:15.756Z,99.99
2022-11-21T09:25:15.737Z,99.99
2022-11-21T09:26:15.686Z,99.99
2022-11-21T09:27:15.639Z,99.99
2022-11-21T09:28:15.655Z,99.99
2022-11-21T09:29:15.620Z,99.99
2022-11-21T09:30:15.532Z,99.99
2022-11-21T09:31:15.499Z,99.99
2022-11-21T09:32:15.456Z,99.99
2022-11-21T09:33:15.425Z,99.99
2022-11-21T09:34:15.442Z,99.99
2022-11-21T09:35:15.334Z,99.99
2022-11-21T09:36:15.292Z,99.99
2022-11-21T09:37:15.253Z,99.99
2022-11-21T09:38:17.520Z,99.99
2022-11-21T09:39:15.221Z,99.99
2022-11-21T09:40:15.208Z,99.99
2022-11-21T09:41:15.110Z,99.99
2022-11-21T09:42:15.066Z,99.35
2022-11-21T09:43:15.029Z,98.93
2022-11-21T09:44:14.992Z,98.41
2022-11-21T09:45:14.950Z,97.99
2022-11-21T09:46:15.036Z,97.99
2022-11-21T09:47:14.868Z,97.47
2022-11-21T09:48:14.835Z,97.53
2022-11-21T09:49:14.802Z,96.49
2022-11-21T09:50:14.773Z,96.64
2022-11-21T09:51:14.758Z,96.70
2022-11-21T09:52:14.741Z,96.07
2022-11-21T09:53:14.639Z,95.86
2022-11-21T09:54:14.599Z,96.80
2022-11-21T09:55:14.557Z,96.49
2022-11-21T09:56:14.530Z,95.72
2022-11-21T09:57:14.484Z,95.97
2022-11-21T09:58:14.502Z,95.65
2022-11-21T09:59:14.416Z,95.92
2022-11-21T10:00:14.379Z,95.82
2022-11-21T10:01:14.500Z,95.92
2022-11-21T10:02:14.300Z,95.50
2022-11-21T10:03:17.970Z,94.46
2022-11-21T10:04:14.277Z,94.78
2022-11-21T10:05:14.186Z,95.19
2022-11-21T10:06:14.151Z,95.46
2022-11-21T10:07:14.198Z,95.67
2022-11-21T10:08:14.081Z,94.94
2022-11-21T10:09:14.038Z,94.79
2022-11-21T10:10:14.065Z,94.73
2022-11-21T10:11:19.520Z,94.58
2022-11-21T10:12:13.924Z,94.17
2022-11-21T10:13:13.893Z,94.27
2022-11-21T10:14:13.849Z,94.17
2022-11-21T10:15:13.819Z,94.17
2022-11-21T10:16:13.846Z,93.96
2022-11-21T10:17:13.743Z,94.69
2022-11-21T10:18:13.701Z,93.65
2022-11-21T10:19:13.684Z,93.60
2022-11-21T10:20:13.619Z,93.65
2022-11-21T10:21:13.619Z,93.65
2022-11-21T10:22:13.634Z,93.75
2022-11-21T10:23:13.504Z,93.44
2022-11-21T10:24:13.477Z,93.85
2022-11-21T10:25:13.443Z,93.85
2022-11-21T10:26:13.519Z,93.54
2022-11-21T10:27:13.372Z,93.33
2022-11-21T10:28:13.384Z,93.85
2022-11-21T10:29:13.287Z,93.75
2022-11-21T10:30:13.254Z,93.65
2022-11-21T10:31:13.215Z,93.54
2022-11-21T10:32:13.169Z,93.02
2022-11-21T10:33:13.140Z,93.23
2022-11-21T10:34:13.157Z,93.44
2022-11-21T10:35:13.070Z,92.96
2022-11-21T10:36:13.063Z,93.48
2022-11-21T10:37:12.982Z,94.31
2022-11-21T10:38:12.959Z,94.10
2022-11-21T10:39:12.908Z,94.10
2022-11-21T10:40:12.946Z,94.73
2022-11-21T10:41:12.844Z,94.52
2022-11-21T10:42:12.800Z,94.00
2022-11-21T10:43:12.758Z,94.52
2022-11-21T10:44:12.728Z,94.42
2022-11-21T10:45:12.696Z,93.69
2022-11-21T10:46:12.705Z,93.69
2022-11-21T10:47:12.611Z,93.90
2022-11-21T10:48:13.307Z,94.42
2022-11-21T10:49:12.542Z,93.69
2022-11-21T10:50:12.502Z,94.06
2022-11-21T10:51:12.469Z,93.75
2022-11-21T10:52:12.489Z,93.27
2022-11-21T10:53:12.394Z,93.23
2022-11-21T10:54:12.433Z,93.44
2022-11-21T10:55:12.315Z,93.65
2022-11-21T10:56:12.274Z,93.81
2022-11-21T10:57:12.279Z,93.50
2022-11-21T10:58:12.256Z,93.04
2022-11-21T10:59:12.164Z,92.62
2022-11-21T11:00:12.129Z,93.24
2022-11-21T11:01:12.130Z,92.62
2022-11-21T11:02:12.051Z,91.89
2022-11-21T11:03:12.080Z,91.68
2022-11-21T11:04:29.043Z,92.21
2022-11-21T11:05:11.993Z,92.27
2022-11-21T11:06:11.898Z,92.27
2022-11-21T11:07:11.902Z,92.47
2022-11-21T11:08:11.822Z,92.06
2022-11-21T11:09:11.815Z,91.64
2022-11-21T11:10:11.813Z,91.64
2022-11-21T11:11:11.739Z,91.43
2022-11-21T11:12:11.684Z,91.96
2022-11-21T11:14:11.612Z,91.75
2022-11-21T11:15:11.569Z,91.39
2022-11-21T11:16:11.599Z,91.91
2022-11-21T11:17:11.492Z,91.18
2022-11-21T11:18:11.462Z,91.33
2022-11-21T11:19:11.417Z,91.53
2022-11-21T11:20:11.383Z,91.39
2022-11-21T11:21:11.345Z,91.28
2022-11-21T11:22:11.371Z,91.02
2022-11-21T11:23:11.275Z,91.64
2022-11-21T11:24:11.233Z,91.71
2022-11-21T11:25:11.201Z,91.33
2022-11-21T11:26:11.167Z,91.18
2022-11-21T11:27:11.128Z,92.02
2022-11-21T11:28:11.158Z,91.43
2022-11-21T11:29:11.052Z,91.60
2022-11-21T11:30:11.012Z,91.91
2022-11-21T11:31:10.979Z,91.81
2022-11-21T11:32:10.938Z,91.96
2022-11-21T11:33:11.706Z,90.56
2022-11-21T11:34:10.931Z,90.35
2022-11-21T11:35:10.827Z,90.56
2022-11-21T11:36:10.797Z,89.10
2022-11-21T11:37:10.762Z,89.31
2022-11-21T11:38:10.716Z,89.62
2022-11-21T11:39:10.681Z,89.27
2022-11-21T11:40:10.700Z,89.27
2022-11-21T11:41:10.615Z,88.60
2022-11-21T11:42:16.400Z,88.60
2022-11-21T11:43:10.539Z,88.71
2022-11-21T11:44:10.497Z,88.71
2022-11-21T11:45:10.463Z,88.40
2022-11-21T11:46:10.473Z,88.09
2022-11-21T11:47:10.387Z,88.15
2022-11-21T11:48:10.348Z,88.29
2022-11-21T11:49:20.911Z,88.15
2022-11-21T11:50:10.291Z,88.25
2022-11-21T11:51:12.709Z,88.15
2022-11-21T11:52:10.262Z,88.15
2022-11-21T11:53:10.171Z,87.84
2022-11-21T11:54:10.144Z,87.84
2022-11-21T11:55:10.157Z,87.90
2022-11-21T11:56:10.100Z,88.42
2022-11-21T11:57:10.022Z,88.10
2022-11-21T11:58:09.979Z,88.31
2022-11-21T11:59:09.955Z,88.42
2022-11-21T12:00:09.966Z,87.69
2022-11-21T12:01:09.880Z,87.69
2022-11-21T12:02:12.031Z,87.90
2022-11-21T12:03:09.804Z,87.59
2022-11-21T12:04:09.761Z,87.79
2022-11-21T12:05:09.752Z,88.42
2022-11-21T12:06:09.786Z,87.69
2022-11-21T12:09:09.625Z,87.48
2022-11-21T12:10:09.546Z,87.59
2022-11-21T12:11:09.510Z,87.48
2022-11-21T12:12:09.563Z,87.48
2022-11-21T12:13:09.441Z,87.59
2022-11-21T12:14:09.397Z,87.48
2022-11-21T12:15:09.371Z,87.17
2022-11-21T12:16:13.444Z,87.38
2022-11-21T12:17:09.820Z,87.90
2022-11-21T12:18:09.317Z,87.84
2022-11-21T12:19:09.220Z,87.84
2022-11-21T12:20:09.180Z,88.15
2022-11-21T12:21:09.147Z,87.17
2022-11-21T12:22:09.114Z,86.69
2022-11-21T12:23:09.064Z,87.52
2022-11-21T12:24:09.093Z,87.52
2022-11-21T12:25:09.004Z,87.42
2022-11-21T12:26:08.960Z,87.63
2022-11-21T12:27:08.928Z,88.35
2022-11-21T12:28:08.893Z,87.42
2022-11-21T12:29:08.849Z,87.32
2022-11-21T12:30:08.926Z,87.52
2022-11-21T12:31:08.786Z,88.15
2022-11-21T12:32:08.743Z,87.21
2022-11-21T12:33:09.461Z,87.52
2022-11-21T12:34:08.672Z,87.42
2022-11-21T12:35:08.637Z,87.07
2022-11-21T12:36:17.492Z,86.44
2022-11-21T12:37:08.567Z,86.44
2022-11-21T12:38:08.531Z,86.34
2022-11-21T12:39:08.497Z,85.96
2022-11-21T12:40:08.654Z,85.86
2022-11-21T12:41:08.412Z,85.86
2022-11-21T12:42:08.450Z,85.86
2022-11-21T12:43:08.349Z,85.75
2022-11-21T12:44:08.323Z,86.83
2022-11-21T12:45:08.268Z,87.66
2022-11-21T12:46:08.230Z,87.25
2022-11-21T12:47:08.208Z,87.46
2022-11-21T12:48:08.231Z,87.35
2022-11-21T12:49:08.127Z,87.46
2022-11-21T12:50:08.097Z,87.66
2022-11-21T12:51:08.049Z,87.25
2022-11-21T12:52:08.018Z,87.42
2022-11-21T12:53:07.991Z,87.42
2022-11-21T12:54:07.999Z,87.01
2022-11-21T12:55:07.907Z,86.59